CheckWX is a tool to help pilots better visualize weather data.  It is not intended as a substitute for an official pre-flight weather briefing.

22:19:22 UTC

KBDL TAF
Bradley International Airport
Windsor Locks, Connecticut, USA
KBDL 202004Z 2020/2124 VRB03KT P6SM VCTS BKN045CB FM210000 22008KT P6SM VCSH SCT045 BKN060 FM211100 21004KT P6SM FEW150 FM211300 24005KT P6SM FEW120 FM211500 27009KT P6SM FEW100

Jul-20@
20:00 UTC

Jul-20 @ 20:00 UTC

Jul-21@
00:00 UTC

Jul-21 @ 00:00 UTC

KBDL 202004Z 2020/2124 VRB03KT P6SM VCTS BKN045CB
Wind
  • Variable at 3 KTS
Conditions
Area Thunderstorm
Cloud Levels
  • Broken at 4,500' AGL

Jul-21@
00:00 UTC

Jul-21 @ 00:00 UTC

Jul-21@
11:00 UTC

Jul-21 @ 11:00 UTC

FM210000 22008KT P6SM VCSH SCT045 BKN060

From

From Standard forecast or significant change

Wind
  • 220° at 8 KTS
Cloud Levels
  • Scattered at 4,500' AGL
  • Broken at 6,000' AGL

Jul-21@
11:00 UTC

Jul-21 @ 11:00 UTC

Jul-21@
13:00 UTC

Jul-21 @ 13:00 UTC

FM211100 21004KT P6SM FEW150

From

From Standard forecast or significant change

Wind
  • 210° at 4 KTS
Cloud Levels
  • Few at 15,000' AGL

Jul-21@
13:00 UTC

Jul-21 @ 13:00 UTC

Jul-21@
15:00 UTC

Jul-21 @ 15:00 UTC

FM211300 24005KT P6SM FEW120

From

From Standard forecast or significant change

Wind
  • 240° at 5 KTS
Cloud Levels
  • Few at 12,000' AGL

Jul-21@
15:00 UTC

Jul-21 @ 15:00 UTC

Jul-22@
00:00 UTC

Jul-22 @ 00:00 UTC

FM211500 27009KT P6SM FEW100

From

From Standard forecast or significant change

Wind
  • 270° at 9 KTS
Cloud Levels
  • Few at 10,000' AGL